createdAt,value
2018-08-20T00:00:40.022Z,17.43
2018-08-20T00:01:40.175Z,17.46
2018-08-20T00:02:40.330Z,17.53
2018-08-20T00:03:40.487Z,17.62
2018-08-20T00:04:40.657Z,17.41
2018-08-20T00:05:40.810Z,17.53
2018-08-20T00:06:40.967Z,17.62
2018-08-20T00:07:41.123Z,17.54
2018-08-20T00:08:41.277Z,17.57
2018-08-20T00:09:41.435Z,17.59
2018-08-20T00:10:41.590Z,17.54
2018-08-20T00:11:41.739Z,17.63
2018-08-20T00:12:41.894Z,17.59
2018-08-20T00:13:42.052Z,17.48
2018-08-20T00:14:42.204Z,17.40
2018-08-20T00:15:42.358Z,17.36
2018-08-20T00:16:42.512Z,17.38
2018-08-20T00:17:42.667Z,17.41
2018-08-20T00:18:42.820Z,17.47
2018-08-20T00:19:42.978Z,17.28
2018-08-20T00:20:43.128Z,17.18
2018-08-20T00:21:43.281Z,17.33
2018-08-20T00:22:43.435Z,17.23
2018-08-20T00:23:43.589Z,17.22
2018-08-20T00:24:43.742Z,17.22
2018-08-20T00:25:43.895Z,17.18
2018-08-20T00:26:44.049Z,17.14
2018-08-20T00:27:44.207Z,17.04
2018-08-20T00:28:44.359Z,17.06
2018-08-20T00:29:44.514Z,17.10
2018-08-20T00:30:44.665Z,17.15
2018-08-20T00:31:44.821Z,17.20
2018-08-20T00:32:44.973Z,17.08
2018-08-20T00:33:45.126Z,17.08
2018-08-20T00:34:45.281Z,17.04
2018-08-20T00:35:45.434Z,17.00
2018-08-20T00:36:45.588Z,16.89
2018-08-20T00:37:45.742Z,16.99
2018-08-20T00:38:45.897Z,16.85
2018-08-20T00:39:46.053Z,16.85
2018-08-20T00:40:46.206Z,16.92
2018-08-20T00:41:46.364Z,17.00
2018-08-20T00:42:46.513Z,16.96
2018-08-20T00:43:46.668Z,16.98
2018-08-20T00:44:46.821Z,16.98
2018-08-20T00:45:46.984Z,16.96
2018-08-20T00:46:47.135Z,16.90
2018-08-20T00:47:47.288Z,17.03
2018-08-20T00:48:47.444Z,17.00
2018-08-20T00:49:47.597Z,17.07
2018-08-20T00:50:47.752Z,17.07
2018-08-20T00:51:47.905Z,17.08
2018-08-20T00:52:48.060Z,17.10
2018-08-20T00:53:48.215Z,16.93
2018-08-20T00:54:48.384Z,16.85
2018-08-20T00:55:48.524Z,16.83
2018-08-20T00:56:48.677Z,16.83
2018-08-20T00:57:48.834Z,16.81
2018-08-20T00:58:48.988Z,16.70
2018-08-20T00:59:49.140Z,16.62
2018-08-20T01:00:49.295Z,16.73
2018-08-20T01:01:49.447Z,16.81
2018-08-20T01:02:49.602Z,16.70
2018-08-20T01:03:49.754Z,16.63
2018-08-20T01:04:49.907Z,16.75
2018-08-20T01:05:50.064Z,16.74
2018-08-20T01:06:50.216Z,16.75
2018-08-20T01:07:50.378Z,16.65
2018-08-20T01:08:50.526Z,16.75
2018-08-20T01:09:50.680Z,16.55
2018-08-20T01:10:50.835Z,16.68
2018-08-20T01:11:50.990Z,16.75
2018-08-20T01:12:51.143Z,16.75
2018-08-20T01:13:51.296Z,16.70
2018-08-20T01:14:51.450Z,16.70
2018-08-20T01:15:51.604Z,16.74
2018-08-20T01:16:51.759Z,16.71
2018-08-20T01:17:51.913Z,16.74
2018-08-20T01:18:52.074Z,16.56
2018-08-20T01:19:52.222Z,16.73
2018-08-20T01:20:52.377Z,16.58
2018-08-20T01:21:52.530Z,16.53
2018-08-20T01:22:52.688Z,16.58
2018-08-20T01:23:52.840Z,16.41
2018-08-20T01:24:52.991Z,16.34
2018-08-20T01:25:53.146Z,16.50
2018-08-20T01:26:53.301Z,16.31
2018-08-20T01:27:53.452Z,16.23
2018-08-20T01:28:53.605Z,16.34
2018-08-20T01:29:53.758Z,16.33
2018-08-20T01:30:53.913Z,16.35
2018-08-20T01:31:54.068Z,16.35
2018-08-20T01:32:54.223Z,16.18
2018-08-20T01:33:54.375Z,16.12
2018-08-20T01:34:54.526Z,16.09
2018-08-20T01:35:54.680Z,16.14
2018-08-20T01:36:54.837Z,16.25
2018-08-20T01:37:54.986Z,16.25
2018-08-20T01:38:55.140Z,16.16
2018-08-20T01:39:55.295Z,16.03
2018-08-20T01:40:55.448Z,16.12
2018-08-20T01:41:55.605Z,16.09
2018-08-20T01:42:55.760Z,16.15
2018-08-20T01:43:55.916Z,16.03
2018-08-20T01:44:56.067Z,16.11
2018-08-20T01:45:56.225Z,16.03
2018-08-20T01:46:56.377Z,16.11
2018-08-20T01:47:56.528Z,16.14
2018-08-20T01:48:56.681Z,16.07
2018-08-20T01:49:56.839Z,16.14
2018-08-20T01:50:56.989Z,16.26
2018-08-20T01:51:57.142Z,16.25
2018-08-20T01:52:57.294Z,16.26
2018-08-20T01:53:57.449Z,16.20
2018-08-20T01:54:57.605Z,16.33
2018-08-20T01:55:57.755Z,16.35
2018-08-20T01:56:57.909Z,16.38
2018-08-20T01:57:58.063Z,16.40
2018-08-20T01:58:58.217Z,16.42
2018-08-20T01:59:58.372Z,16.49
2018-08-20T02:00:58.526Z,16.44
2018-08-20T02:01:58.678Z,16.41
2018-08-20T02:02:58.832Z,16.34
2018-08-20T02:03:58.987Z,16.41
2018-08-20T02:04:59.141Z,16.22
2018-08-20T02:05:59.302Z,16.25
2018-08-20T02:06:59.449Z,16.26
2018-08-20T02:07:59.603Z,16.27
2018-08-20T02:08:59.756Z,16.27
2018-08-20T02:09:59.910Z,16.22
2018-08-20T02:11:00.064Z,16.23
2018-08-20T02:12:00.216Z,16.31
2018-08-20T02:13:00.370Z,16.37
2018-08-20T02:14:00.527Z,16.44
2018-08-20T02:15:00.676Z,16.20
2018-08-20T02:16:00.829Z,16.31
2018-08-20T02:17:00.983Z,16.18
2018-08-20T02:18:01.138Z,16.14
2018-08-20T02:19:01.293Z,16.25
2018-08-20T02:20:01.448Z,16.20
2018-08-20T02:21:01.601Z,16.06
2018-08-20T02:22:01.753Z,16.14
2018-08-20T02:23:01.910Z,15.97
2018-08-20T02:24:02.062Z,15.92
2018-08-20T02:25:02.215Z,15.97
2018-08-20T02:26:02.370Z,15.97
2018-08-20T02:27:02.523Z,15.88
2018-08-20T02:28:02.673Z,16.00
2018-08-20T02:29:02.826Z,15.89
2018-08-20T02:30:02.982Z,15.89
2018-08-20T02:31:03.134Z,15.93
2018-08-20T02:32:03.287Z,15.85
2018-08-20T02:33:03.439Z,15.82
2018-08-20T02:34:03.596Z,15.72
2018-08-20T02:35:03.748Z,15.66
2018-08-20T02:36:03.903Z,15.61
2018-08-20T02:37:04.056Z,15.57
2018-08-20T02:38:04.212Z,15.60
2018-08-20T02:39:04.365Z,15.63
2018-08-20T02:40:04.520Z,15.57
2018-08-20T02:41:04.679Z,15.48
2018-08-20T02:42:04.827Z,15.56
2018-08-20T02:43:04.981Z,15.59
2018-08-20T02:44:05.132Z,15.46
2018-08-20T02:45:05.289Z,15.60
2018-08-20T02:46:05.447Z,15.54
2018-08-20T02:47:05.599Z,15.54
2018-08-20T02:48:05.749Z,15.57
2018-08-20T02:49:05.903Z,15.54
2018-08-20T02:50:06.057Z,15.49
2018-08-20T02:51:06.210Z,15.43
2018-08-20T02:52:06.364Z,15.46
2018-08-20T02:53:06.518Z,15.43
2018-08-20T02:54:06.672Z,15.57
2018-08-20T02:55:06.827Z,15.56
2018-08-20T02:56:06.981Z,15.56
2018-08-20T02:57:07.133Z,15.59
2018-08-20T02:58:07.286Z,15.61
2018-08-20T02:59:07.442Z,15.49
2018-08-20T03:00:07.595Z,15.43
2018-08-20T03:01:07.752Z,15.57
2018-08-20T03:02:07.983Z,15.54
2018-08-20T03:03:08.075Z,15.54
2018-08-20T03:04:08.231Z,15.54
2018-08-20T03:05:08.385Z,15.48
2018-08-20T03:06:08.538Z,15.48
2018-08-20T03:07:08.692Z,15.36
2018-08-20T03:08:08.846Z,15.46
2018-08-20T03:09:09.001Z,15.41
2018-08-20T03:10:09.152Z,15.27
2018-08-20T03:11:09.304Z,15.24
2018-08-20T03:12:09.458Z,15.15
2018-08-20T03:13:09.612Z,15.13
2018-08-20T03:14:09.770Z,15.02
2018-08-20T03:15:09.914Z,14.95
2018-08-20T03:16:10.074Z,15.01
2018-08-20T03:17:10.224Z,15.02
2018-08-20T03:18:10.375Z,15.06
2018-08-20T03:19:10.530Z,15.06
2018-08-20T03:20:10.685Z,15.08
2018-08-20T03:21:10.837Z,15.03
2018-08-20T03:22:10.994Z,15.02
2018-08-20T03:23:11.144Z,15.19
2018-08-20T03:24:11.297Z,15.20
2018-08-20T03:25:11.450Z,15.26
2018-08-20T03:26:11.603Z,15.17
2018-08-20T03:27:11.755Z,15.20
2018-08-20T03:28:11.909Z,15.06
2018-08-20T03:29:12.064Z,15.13
2018-08-20T03:30:12.216Z,15.11
2018-08-20T03:31:12.372Z,15.12
2018-08-20T03:32:12.523Z,15.11
2018-08-20T03:33:12.676Z,15.03
2018-08-20T03:34:12.828Z,15.12
2018-08-20T03:35:12.983Z,15.06
2018-08-20T03:36:13.136Z,15.17
2018-08-20T03:37:13.286Z,15.13
2018-08-20T03:38:13.438Z,15.21
2018-08-20T03:39:13.591Z,15.12
2018-08-20T03:40:13.742Z,15.11
2018-08-20T03:41:13.895Z,15.08
2018-08-20T03:42:14.049Z,15.09
2018-08-20T03:43:14.203Z,15.05
2018-08-20T03:44:14.356Z,15.05
2018-08-20T03:45:14.511Z,15.01
2018-08-20T03:46:14.663Z,14.93
2018-08-20T03:47:14.818Z,15.08
2018-08-20T03:48:14.970Z,15.05
2018-08-20T03:49:15.123Z,15.08
2018-08-20T03:50:15.275Z,15.11
2018-08-20T03:51:15.427Z,15.08
2018-08-20T03:52:15.589Z,14.98
2018-08-20T03:53:15.733Z,14.94
2018-08-20T03:54:15.886Z,14.88
2018-08-20T03:55:16.037Z,14.93
2018-08-20T03:56:16.194Z,14.91
2018-08-20T03:57:16.349Z,14.91
2018-08-20T03:58:16.501Z,14.93
2018-08-20T03:59:16.655Z,14.99
2018-08-20T04:00:16.808Z,14.94
2018-08-20T04:01:16.962Z,14.84
2018-08-20T04:02:17.114Z,14.86
2018-08-20T04:03:17.275Z,14.86
2018-08-20T04:04:17.419Z,14.91
2018-08-20T04:05:17.575Z,14.90
2018-08-20T04:06:17.725Z,14.83
2018-08-20T04:07:17.880Z,14.84
2018-08-20T04:08:18.032Z,14.93
2018-08-20T04:09:18.187Z,14.81
2018-08-20T04:10:18.341Z,14.80
2018-08-20T04:11:18.493Z,14.81
2018-08-20T04:12:18.646Z,14.80
2018-08-20T04:13:18.800Z,14.75
2018-08-20T04:14:18.953Z,14.90
2018-08-20T04:15:19.109Z,14.83
2018-08-20T04:16:19.258Z,14.88
2018-08-20T04:17:19.411Z,14.86
2018-08-20T04:18:19.565Z,14.90
2018-08-20T04:19:19.722Z,14.93
2018-08-20T04:20:19.874Z,14.83
2018-08-20T04:21:20.026Z,14.84
2018-08-20T04:22:20.181Z,14.91
2018-08-20T04:23:20.333Z,14.83
2018-08-20T04:24:20.487Z,14.80
2018-08-20T04:25:20.640Z,14.78
2018-08-20T04:26:20.793Z,14.75
2018-08-20T04:27:20.949Z,14.78
2018-08-20T04:28:21.099Z,14.91
2018-08-20T04:29:21.255Z,14.88
2018-08-20T04:30:21.408Z,14.80
2018-08-20T04:31:21.562Z,14.84
2018-08-20T04:32:21.714Z,14.91
2018-08-20T04:33:21.872Z,14.90
2018-08-20T04:34:22.021Z,14.95
2018-08-20T04:35:22.175Z,14.88
2018-08-20T04:36:22.332Z,14.88
2018-08-20T04:37:22.483Z,14.99
2018-08-20T04:38:22.636Z,15.03
2018-08-20T04:39:22.790Z,14.99
2018-08-20T04:40:22.944Z,15.02
2018-08-20T04:41:23.096Z,15.01
2018-08-20T04:42:23.254Z,15.09
2018-08-20T04:43:23.404Z,15.05
2018-08-20T04:44:23.560Z,15.03
2018-08-20T04:45:23.711Z,14.99
2018-08-20T04:46:23.866Z,14.81
2018-08-20T04:47:24.022Z,14.84
2018-08-20T04:48:24.176Z,14.93
2018-08-20T04:49:24.328Z,14.98
2018-08-20T04:50:24.697Z,15.09
2018-08-20T04:51:24.751Z,15.15
2018-08-20T04:52:24.788Z,15.30
2018-08-20T04:53:24.944Z,15.21
2018-08-20T04:54:25.112Z,15.26
2018-08-20T04:55:25.250Z,15.23
2018-08-20T04:56:25.403Z,15.35
2018-08-20T04:57:25.556Z,15.39
2018-08-20T04:58:25.714Z,15.43
2018-08-20T04:59:25.866Z,15.46
2018-08-20T05:00:26.020Z,15.41
2018-08-20T05:01:26.170Z,15.42
2018-08-20T05:02:26.325Z,15.43
2018-08-20T05:03:26.478Z,15.41
2018-08-20T05:04:26.630Z,15.35
2018-08-20T05:05:26.787Z,15.42
2018-08-20T05:06:26.939Z,15.46
2018-08-20T05:07:27.093Z,15.48
2018-08-20T05:08:27.247Z,15.45
2018-08-20T05:09:27.403Z,15.63
2018-08-20T05:10:27.555Z,15.57
2018-08-20T05:11:27.707Z,15.57
2018-08-20T05:12:27.863Z,15.64
2018-08-20T05:13:28.016Z,15.61
2018-08-20T05:14:28.172Z,15.74
2018-08-20T05:15:28.323Z,15.78
2018-08-20T05:16:28.479Z,15.88
2018-08-20T05:17:28.645Z,15.89
2018-08-20T05:18:28.791Z,15.96
2018-08-20T05:19:28.947Z,15.97
2018-08-20T05:20:29.098Z,15.72
2018-08-20T05:21:29.249Z,15.79
2018-08-20T05:22:29.401Z,15.81
2018-08-20T05:23:29.557Z,15.86
2018-08-20T05:24:29.710Z,15.97
2018-08-20T05:25:29.863Z,15.96
2018-08-20T05:26:30.019Z,16.03
2018-08-20T05:27:30.178Z,15.97
2018-08-20T05:28:30.336Z,16.09
2018-08-20T05:29:30.523Z,16.07
2018-08-20T05:30:30.642Z,16.27
2018-08-20T05:31:30.795Z,16.22
2018-08-20T05:32:30.949Z,16.30
2018-08-20T05:33:31.106Z,16.30
2018-08-20T05:34:31.255Z,16.23
2018-08-20T05:35:31.411Z,16.27
2018-08-20T05:36:31.566Z,16.34
2018-08-20T05:37:31.730Z,16.27
2018-08-20T05:38:31.881Z,16.33
2018-08-20T05:39:32.037Z,16.38
2018-08-20T05:40:32.193Z,16.50
2018-08-20T05:41:32.346Z,16.62
2018-08-20T05:42:32.502Z,16.49
2018-08-20T05:43:32.657Z,16.48
2018-08-20T05:44:32.812Z,16.56
2018-08-20T05:45:32.966Z,16.73
2018-08-20T05:46:33.120Z,16.85
2018-08-20T05:47:33.273Z,16.77
2018-08-20T05:48:33.431Z,16.78
2018-08-20T05:49:33.583Z,16.70
2018-08-20T05:50:33.743Z,16.85
2018-08-20T05:51:33.899Z,16.81
2018-08-20T05:52:34.179Z,16.80
2018-08-20T05:53:34.214Z,16.83
2018-08-20T05:54:34.363Z,16.95
2018-08-20T05:55:34.518Z,17.06
2018-08-20T05:56:34.672Z,17.14
2018-08-20T05:57:34.827Z,17.08
2018-08-20T05:58:34.980Z,17.11
2018-08-20T05:59:35.137Z,17.15
2018-08-20T06:00:35.289Z,17.08
2018-08-20T06:01:35.446Z,17.20
2018-08-20T06:02:35.600Z,17.20
2018-08-20T06:03:35.755Z,17.10
2018-08-20T06:04:35.911Z,17.28
2018-08-20T06:05:36.065Z,17.41
2018-08-20T06:06:36.219Z,17.43
2018-08-20T06:07:36.375Z,17.55
2018-08-20T06:08:36.533Z,17.71
2018-08-20T06:09:36.687Z,17.71
2018-08-20T06:10:36.843Z,17.78
2018-08-20T06:11:36.998Z,17.82
2018-08-20T06:12:37.153Z,17.76
2018-08-20T06:13:37.306Z,17.79
2018-08-20T06:14:37.476Z,17.78
2018-08-20T06:15:37.618Z,17.76
2018-08-20T06:16:37.768Z,17.89
2018-08-20T06:17:37.925Z,17.92
2018-08-20T06:18:38.084Z,18.06
2018-08-20T06:19:38.238Z,18.22
2018-08-20T06:20:38.391Z,18.25
2018-08-20T06:21:38.548Z,18.34
2018-08-20T06:22:38.725Z,18.42
2018-08-20T06:23:38.856Z,18.42
2018-08-20T06:24:39.011Z,18.40
2018-08-20T06:25:39.165Z,18.19
2018-08-20T06:26:39.322Z,18.25
2018-08-20T06:27:39.476Z,18.25
2018-08-20T06:28:39.663Z,18.33
2018-08-20T06:29:39.789Z,18.44
2018-08-20T06:30:39.943Z,18.40
2018-08-20T06:31:40.096Z,18.46
2018-08-20T06:32:40.248Z,18.37
2018-08-20T06:33:40.405Z,18.44
2018-08-20T06:34:40.559Z,18.54
2018-08-20T06:35:40.767Z,18.49
2018-08-20T06:36:40.874Z,18.39
2018-08-20T06:37:41.025Z,18.36
2018-08-20T06:38:41.177Z,18.42
2018-08-20T06:39:41.335Z,18.27
2018-08-20T06:40:41.493Z,18.24
2018-08-20T06:41:41.710Z,18.18
2018-08-20T06:42:41.810Z,18.22
2018-08-20T06:43:41.954Z,18.31
2018-08-20T06:44:42.110Z,18.37
2018-08-20T06:45:42.264Z,18.24
2018-08-20T06:46:42.417Z,18.25
2018-08-20T06:47:42.572Z,18.36
2018-08-20T06:48:42.793Z,18.46
2018-08-20T06:49:42.885Z,18.46
2018-08-20T06:50:43.040Z,18.44
2018-08-20T06:51:43.192Z,18.49
2018-08-20T06:52:43.352Z,18.46
2018-08-20T06:53:43.506Z,18.43
2018-08-20T06:54:43.662Z,18.42
2018-08-20T06:55:43.817Z,18.49
2018-08-20T06:56:43.973Z,18.55
2018-08-20T06:57:44.129Z,18.64
2018-08-20T06:58:44.285Z,18.70
2018-08-20T06:59:44.447Z,18.80
2018-08-20T07:00:44.663Z,18.80
2018-08-20T07:01:44.752Z,18.70
2018-08-20T07:02:44.909Z,18.90
2018-08-20T07:03:45.063Z,18.94
2018-08-20T07:04:45.218Z,18.99
2018-08-20T07:05:45.376Z,18.99
2018-08-20T07:06:45.532Z,19.11
2018-08-20T07:07:45.689Z,19.23
2018-08-20T07:08:45.848Z,19.36
2018-08-20T07:09:46.002Z,19.29
2018-08-20T07:10:46.158Z,19.28
2018-08-20T07:11:46.321Z,19.42
2018-08-20T07:12:46.468Z,19.39
2018-08-20T07:13:46.629Z,19.55
2018-08-20T07:14:46.780Z,19.66
2018-08-20T07:15:46.940Z,19.72
2018-08-20T07:16:47.096Z,19.75
2018-08-20T07:17:47.251Z,19.70
2018-08-20T07:18:47.410Z,19.57
2018-08-20T07:19:47.565Z,19.66
2018-08-20T07:20:47.718Z,19.76
2018-08-20T07:21:47.875Z,19.86
2018-08-20T07:22:48.060Z,19.83
2018-08-20T07:23:48.203Z,19.88
2018-08-20T07:24:48.345Z,19.97
2018-08-20T07:25:48.502Z,20.08
2018-08-20T07:26:48.657Z,20.15
2018-08-20T07:27:48.812Z,20.25
2018-08-20T07:28:48.967Z,20.20
2018-08-20T07:29:49.124Z,20.25
2018-08-20T07:30:49.281Z,20.49
2018-08-20T07:31:49.439Z,20.49
2018-08-20T07:32:49.605Z,20.62
2018-08-20T07:33:49.751Z,20.58
2018-08-20T07:34:49.913Z,20.59
2018-08-20T07:35:50.066Z,20.56
2018-08-20T07:36:50.221Z,20.42
2018-08-20T07:37:50.380Z,20.46
2018-08-20T07:38:50.534Z,20.23
2018-08-20T07:39:50.690Z,20.23
2018-08-20T07:40:50.845Z,20.47
2018-08-20T07:41:51.004Z,20.71
2018-08-20T07:42:51.161Z,20.39
2018-08-20T07:43:51.314Z,20.54
2018-08-20T07:44:51.471Z,20.58
2018-08-20T07:45:51.630Z,20.77
2018-08-20T07:46:51.785Z,20.86
2018-08-20T07:47:51.942Z,20.95
2018-08-20T07:48:52.101Z,20.93
2018-08-20T07:49:52.258Z,21.05
2018-08-20T07:50:52.439Z,20.99
2018-08-20T07:51:52.570Z,21.13
2018-08-20T07:52:52.727Z,21.21
2018-08-20T07:53:52.883Z,21.35
2018-08-20T07:54:53.040Z,21.46
2018-08-20T07:55:53.197Z,21.57
2018-08-20T07:56:53.355Z,21.69
2018-08-20T07:57:53.512Z,21.92
2018-08-20T07:58:53.666Z,21.91
2018-08-20T07:59:53.825Z,21.97
2018-08-20T08:00:53.982Z,22.19
2018-08-20T08:01:54.137Z,22.06
2018-08-20T08:02:54.294Z,22.14
2018-08-20T08:03:54.452Z,22.13
2018-08-20T08:04:54.610Z,22.12
2018-08-20T08:05:54.772Z,22.04
2018-08-20T08:06:54.929Z,22.09
2018-08-20T08:07:55.086Z,22.19
2018-08-20T08:08:55.241Z,22.13
2018-08-20T08:09:55.398Z,22.27
2018-08-20T08:10:55.554Z,22.09
2018-08-20T08:11:55.714Z,22.09
2018-08-20T08:12:55.870Z,22.09
2018-08-20T08:13:56.029Z,22.25
2018-08-20T08:14:56.182Z,22.27
2018-08-20T08:15:56.339Z,22.34
2018-08-20T08:16:56.496Z,22.32
2018-08-20T08:17:56.655Z,22.22
2018-08-20T08:18:56.836Z,22.31
2018-08-20T08:19:56.974Z,22.49
2018-08-20T08:20:57.127Z,22.44
2018-08-20T08:21:57.287Z,22.44
2018-08-20T08:22:57.440Z,22.56
2018-08-20T08:23:57.597Z,22.69
2018-08-20T08:24:57.756Z,22.84
2018-08-20T08:25:57.912Z,22.77
2018-08-20T08:26:58.069Z,22.47
2018-08-20T08:27:58.225Z,22.56
2018-08-20T08:28:58.381Z,22.49
2018-08-20T08:29:58.540Z,22.53
2018-08-20T08:30:58.702Z,22.54
2018-08-20T08:31:58.858Z,22.47
2018-08-20T08:32:59.012Z,22.38
2018-08-20T08:33:59.170Z,22.25
2018-08-20T08:34:59.327Z,22.43
2018-08-20T08:35:59.485Z,22.49
2018-08-20T08:36:59.648Z,22.71
2018-08-20T08:37:59.839Z,22.64
2018-08-20T08:38:59.959Z,22.75
2018-08-20T08:40:00.119Z,22.83
2018-08-20T08:41:00.281Z,22.93
2018-08-20T08:42:00.435Z,23.09
2018-08-20T08:43:00.594Z,23.19
2018-08-20T08:44:00.751Z,23.20
2018-08-20T08:45:00.911Z,23.31
2018-08-20T08:46:01.069Z,23.31
2018-08-20T08:47:01.232Z,23.04
2018-08-20T08:48:01.382Z,23.02
2018-08-20T08:49:01.542Z,22.80
2018-08-20T08:50:01.700Z,22.77
2018-08-20T08:51:01.857Z,22.90
2018-08-20T08:52:02.014Z,22.75
2018-08-20T08:53:02.172Z,22.82
2018-08-20T08:54:02.328Z,22.71
2018-08-20T08:55:02.555Z,22.74
2018-08-20T08:56:02.645Z,22.84
2018-08-20T08:57:02.803Z,22.86
2018-08-20T08:58:02.959Z,22.83
2018-08-20T08:59:03.119Z,22.75
2018-08-20T09:00:03.275Z,22.74
2018-08-20T09:01:03.433Z,22.82
2018-08-20T09:02:03.590Z,22.80
2018-08-20T09:03:03.747Z,22.74
2018-08-20T09:04:03.906Z,22.78
2018-08-20T09:05:04.064Z,22.90
2018-08-20T09:06:04.222Z,22.94
2018-08-20T09:07:04.382Z,22.80
2018-08-20T09:08:04.540Z,22.78
2018-08-20T09:09:04.694Z,22.84
2018-08-20T09:10:04.853Z,22.93
2018-08-20T09:11:05.013Z,23.01
2018-08-20T09:12:05.171Z,22.89
2018-08-20T09:13:05.331Z,22.97
2018-08-20T09:14:05.488Z,22.92
2018-08-20T09:15:05.648Z,23.05
2018-08-20T09:16:05.802Z,23.07
2018-08-20T09:17:05.961Z,23.12
2018-08-20T09:18:06.118Z,23.26
2018-08-20T09:19:06.278Z,23.35
2018-08-20T09:20:06.433Z,23.55
2018-08-20T09:21:06.591Z,23.61
2018-08-20T09:22:06.750Z,23.52
2018-08-20T09:23:06.905Z,23.61
2018-08-20T09:24:07.065Z,23.72
2018-08-20T09:25:07.221Z,23.62
2018-08-20T09:26:07.378Z,23.79
2018-08-20T09:27:07.535Z,23.95
2018-08-20T09:28:07.691Z,23.85
2018-08-20T09:29:07.851Z,23.92
2018-08-20T09:30:08.010Z,23.87
2018-08-20T09:31:08.200Z,24.02
2018-08-20T09:32:08.410Z,24.14
2018-08-20T09:33:08.517Z,24.20
2018-08-20T09:34:08.677Z,24.08
2018-08-20T09:35:08.837Z,24.00
2018-08-20T09:36:08.996Z,24.14
2018-08-20T09:37:09.153Z,24.27
2018-08-20T09:38:09.351Z,24.23
2018-08-20T09:39:09.470Z,24.34
2018-08-20T09:40:09.626Z,24.19
2018-08-20T09:41:09.784Z,24.17
2018-08-20T09:42:09.942Z,24.22
2018-08-20T09:43:10.105Z,24.45
2018-08-20T09:44:10.261Z,24.39
2018-08-20T09:45:10.420Z,24.63
2018-08-20T09:46:10.580Z,24.59
2018-08-20T09:47:10.739Z,24.44
2018-08-20T09:48:10.897Z,24.71
2018-08-20T09:49:11.056Z,24.82
2018-08-20T09:50:11.219Z,24.76
2018-08-20T09:51:11.373Z,24.76
2018-08-20T09:52:11.535Z,24.54
2018-08-20T09:53:11.730Z,24.69
2018-08-20T09:54:11.855Z,24.57
2018-08-20T09:55:12.014Z,24.57
2018-08-20T09:56:12.171Z,24.56
2018-08-20T09:57:12.337Z,24.79
2018-08-20T09:58:12.490Z,25.02
2018-08-20T09:59:12.706Z,25.30
2018-08-20T10:00:12.809Z,25.34
2018-08-20T10:01:12.969Z,25.32
2018-08-20T10:02:13.126Z,25.47
2018-08-20T10:03:13.284Z,25.38
2018-08-20T10:04:13.447Z,25.46
2018-08-20T10:05:13.606Z,25.56
2018-08-20T10:06:13.765Z,25.05
2018-08-20T10:07:13.925Z,25.27
2018-08-20T10:08:14.087Z,25.54
2018-08-20T10:09:14.273Z,25.71
2018-08-20T10:10:14.402Z,25.61
2018-08-20T10:11:14.565Z,25.74
2018-08-20T10:12:14.725Z,25.65
2018-08-20T10:13:14.884Z,25.49
2018-08-20T10:14:15.046Z,25.56
2018-08-20T10:15:15.205Z,25.59
2018-08-20T10:16:15.365Z,25.65
2018-08-20T10:17:15.529Z,25.61
2018-08-20T10:18:15.688Z,25.82
2018-08-20T10:19:15.847Z,25.75
2018-08-20T10:20:16.005Z,25.72
2018-08-20T10:21:16.165Z,25.79
2018-08-20T10:22:16.368Z,25.99
2018-08-20T10:23:16.485Z,26.04
2018-08-20T10:24:16.644Z,25.99
2018-08-20T10:25:16.812Z,26.20
2018-08-20T10:26:16.966Z,26.31
2018-08-20T10:27:17.128Z,26.32
2018-08-20T10:28:17.287Z,26.47
2018-08-20T10:29:17.450Z,26.67
2018-08-20T10:30:17.608Z,26.72
2018-08-20T10:31:17.764Z,26.59
2018-08-20T10:32:17.926Z,26.62
2018-08-20T10:33:18.088Z,26.68
2018-08-20T10:34:18.249Z,26.64
2018-08-20T10:35:18.411Z,26.73
2018-08-20T10:36:18.571Z,26.09
2018-08-20T10:37:18.731Z,25.94
2018-08-20T10:38:18.893Z,25.79
2018-08-20T10:39:19.050Z,25.62
2018-08-20T10:40:19.212Z,25.84
2018-08-20T10:41:19.373Z,25.87
2018-08-20T10:42:19.536Z,25.89
2018-08-20T10:43:19.694Z,25.89
2018-08-20T10:44:19.855Z,25.91
2018-08-20T10:45:20.015Z,26.08
2018-08-20T10:46:20.176Z,26.20
2018-08-20T10:47:20.337Z,26.24
2018-08-20T10:48:20.498Z,26.27
2018-08-20T10:49:20.662Z,26.44
2018-08-20T10:50:20.819Z,26.55
2018-08-20T10:51:20.982Z,26.73
2018-08-20T10:52:21.139Z,26.83
2018-08-20T10:53:21.302Z,26.92
2018-08-20T10:54:21.464Z,26.62
2018-08-20T10:55:21.623Z,26.47
2018-08-20T10:56:21.832Z,26.40
2018-08-20T10:57:21.946Z,26.35
2018-08-20T10:58:22.105Z,26.25
2018-08-20T10:59:22.268Z,26.21
2018-08-20T11:00:22.425Z,26.35
2018-08-20T11:01:22.588Z,26.49
2018-08-20T11:02:22.747Z,26.72
2018-08-20T11:03:22.911Z,26.42
2018-08-20T11:04:23.070Z,26.57
2018-08-20T11:05:23.230Z,26.35
2018-08-20T11:06:23.392Z,26.46
2018-08-20T11:07:23.554Z,26.50
2018-08-20T11:08:23.714Z,26.54
2018-08-20T11:09:23.877Z,26.61
2018-08-20T11:10:24.034Z,26.62
2018-08-20T11:11:24.184Z,26.65
2018-08-20T11:12:24.363Z,26.67
2018-08-20T11:13:24.523Z,26.67
2018-08-20T11:14:24.688Z,26.79
2018-08-20T11:15:24.845Z,26.79
2018-08-20T11:16:25.008Z,27.05
2018-08-20T11:17:25.167Z,27.16
2018-08-20T11:18:25.356Z,27.36
2018-08-20T11:19:25.487Z,27.46
2018-08-20T11:20:25.649Z,27.61
2018-08-20T11:21:25.808Z,27.19
2018-08-20T11:22:25.970Z,26.95
2018-08-20T11:23:26.129Z,27.05
2018-08-20T11:24:26.292Z,27.31
2018-08-20T11:25:26.452Z,27.61
2018-08-20T11:26:26.613Z,27.71
2018-08-20T11:27:26.813Z,28.09
2018-08-20T11:28:26.942Z,28.29
2018-08-20T11:29:27.105Z,28.36
2018-08-20T11:30:27.274Z,28.23
2018-08-20T11:31:27.424Z,27.88
2018-08-20T11:32:27.591Z,27.69
2018-08-20T11:33:27.749Z,27.50
2018-08-20T11:34:27.912Z,27.29
2018-08-20T11:35:28.073Z,27.61
2018-08-20T11:36:28.238Z,27.62
2018-08-20T11:37:28.397Z,27.77
2018-08-20T11:38:28.564Z,27.94
2018-08-20T11:39:28.722Z,27.51
2018-08-20T11:40:28.882Z,27.13
2018-08-20T11:41:29.044Z,27.26
2018-08-20T11:42:29.208Z,27.21
2018-08-20T11:43:29.373Z,27.04
2018-08-20T11:44:29.536Z,27.11
2018-08-20T11:45:29.695Z,26.91
2018-08-20T11:46:29.854Z,26.89
2018-08-20T11:47:30.014Z,26.76
2018-08-20T11:48:30.176Z,27.02
2018-08-20T11:49:30.336Z,26.96
2018-08-20T11:50:30.503Z,26.80
2018-08-20T11:51:30.659Z,27.01
2018-08-20T11:52:30.820Z,27.10
2018-08-20T11:53:30.987Z,26.80
2018-08-20T11:54:31.149Z,26.80
2018-08-20T11:55:31.307Z,26.81
2018-08-20T11:56:31.467Z,26.76
2018-08-20T11:57:31.628Z,26.79
2018-08-20T11:58:31.789Z,26.74
2018-08-20T11:59:31.950Z,26.69
2018-08-20T12:00:32.113Z,26.76
2018-08-20T12:01:32.274Z,26.65
2018-08-20T12:02:32.436Z,26.69
2018-08-20T12:03:32.599Z,26.67
2018-08-20T12:04:32.760Z,26.62
2018-08-20T12:05:32.920Z,26.52
2018-08-20T12:06:33.081Z,26.65
2018-08-20T12:07:33.267Z,26.64
2018-08-20T12:08:33.409Z,26.68
2018-08-20T12:09:33.569Z,26.79
2018-08-20T12:10:33.731Z,26.79
2018-08-20T12:11:33.895Z,26.77
2018-08-20T12:12:34.054Z,26.74
2018-08-20T12:13:34.225Z,26.67
2018-08-20T12:14:34.379Z,26.62
2018-08-20T12:15:34.539Z,26.65
2018-08-20T12:16:34.701Z,26.55
2018-08-20T12:17:34.860Z,26.50
2018-08-20T12:18:35.024Z,26.28
2018-08-20T12:19:35.186Z,26.04
2018-08-20T12:20:35.345Z,26.27
2018-08-20T12:21:35.505Z,26.29
2018-08-20T12:22:35.707Z,26.36
2018-08-20T12:23:35.824Z,26.37
2018-08-20T12:24:35.981Z,26.36
2018-08-20T12:25:36.145Z,26.21
2018-08-20T12:26:36.304Z,26.21
2018-08-20T12:27:36.466Z,26.27
2018-08-20T12:28:36.631Z,26.20
2018-08-20T12:29:36.793Z,26.02
2018-08-20T12:30:36.954Z,25.98
2018-08-20T12:31:37.114Z,26.18
2018-08-20T12:32:37.275Z,26.05
2018-08-20T12:33:37.436Z,26.05
2018-08-20T12:34:37.596Z,26.12
2018-08-20T12:35:37.756Z,25.86
2018-08-20T12:36:37.915Z,25.86
2018-08-20T12:37:38.082Z,25.87
2018-08-20T12:38:38.280Z,26.01
2018-08-20T12:39:38.431Z,26.17
2018-08-20T12:40:38.638Z,26.31
2018-08-20T12:41:38.718Z,26.46
2018-08-20T12:42:38.878Z,26.49
2018-08-20T12:43:39.035Z,26.59
2018-08-20T12:44:39.193Z,26.32
2018-08-20T12:45:39.354Z,26.47
2018-08-20T12:46:39.519Z,26.49
2018-08-20T12:47:39.678Z,26.72
2018-08-20T12:48:39.844Z,26.74
2018-08-20T12:49:40.003Z,26.95
2018-08-20T12:50:40.165Z,26.95
2018-08-20T12:51:40.324Z,27.11
2018-08-20T12:52:40.485Z,27.10
2018-08-20T12:53:40.648Z,27.20
2018-08-20T12:54:40.809Z,26.96